sensor_id;sensor_type;location;lat;lon;timestamp;P1;durP1;ratioP1;P2;durP2;ratioP2
17528;SDS011;8882;53.192;8.184;2023-02-15T05:30:36;22.73;;;9.97;;
17528;SDS011;8882;53.192;8.184;2023-02-15T05:33:04;28.77;;;10.67;;
17528;SDS011;8882;53.192;8.184;2023-02-15T05:35:30;22.20;;;10.53;;
17528;SDS011;8882;53.192;8.184;2023-02-15T05:37:57;22.07;;;10.23;;
17528;SDS011;8882;53.192;8.184;2023-02-15T05:40:22;24.40;;;9.40;;
17528;SDS011;8882;53.192;8.184;2023-02-15T05:42:48;21.27;;;9.73;;
17528;SDS011;8882;53.192;8.184;2023-02-15T05:45:13;22.80;;;10.00;;
17528;SDS011;8882;53.192;8.184;2023-02-15T05:47:40;24.60;;;9.77;;
17528;SDS011;8882;53.192;8.184;2023-02-15T05:50:06;19.07;;;8.93;;
17528;SDS011;8882;53.192;8.184;2023-02-15T05:52:32;18.17;;;9.73;;
17528;SDS011;8882;53.192;8.184;2023-02-15T05:54:57;17.97;;;8.90;;
17528;SDS011;8882;53.192;8.184;2023-02-15T05:57:25;21.43;;;9.17;;
17528;SDS011;8882;53.192;8.184;2023-02-15T05:59:51;21.70;;;9.07;;
17528;SDS011;8882;53.192;8.184;2023-02-15T06:02:16;13.40;;;8.13;;
17528;SDS011;8882;53.192;8.184;2023-02-15T06:04:42;17.90;;;8.43;;
17528;SDS011;8882;53.192;8.184;2023-02-15T06:07:08;16.03;;;9.00;;
17528;SDS011;8882;53.192;8.184;2023-02-15T06:09:33;16.00;;;9.27;;
17528;SDS011;8882;53.192;8.184;2023-02-15T06:11:59;22.67;;;10.93;;
17528;SDS011;8882;53.192;8.184;2023-02-15T06:14:24;24.67;;;11.90;;
17528;SDS011;8882;53.192;8.184;2023-02-15T06:16:50;18.83;;;9.97;;
17528;SDS011;8882;53.192;8.184;2023-02-15T06:19:16;15.87;;;8.97;;
17528;SDS011;8882;53.192;8.184;2023-02-15T06:21:42;19.03;;;9.30;;
17528;SDS011;8882;53.192;8.184;2023-02-15T06:24:08;17.73;;;9.03;;
17528;SDS011;8882;53.192;8.184;2023-02-15T06:26:34;16.07;;;9.63;;
17528;SDS011;8882;53.192;8.184;2023-02-15T06:29:00;62.33;;;34.50;;
17528;SDS011;8882;53.192;8.184;2023-02-15T06:31:26;42.67;;;20.40;;
17528;SDS011;8882;53.192;8.184;2023-02-15T06:33:51;21.30;;;10.70;;
17528;SDS011;8882;53.192;8.184;2023-02-15T06:36:17;17.10;;;9.63;;
17528;SDS011;8882;53.192;8.184;2023-02-15T06:38:42;25.20;;;13.35;;
17528;SDS011;8882;53.192;8.184;2023-02-15T06:41:08;25.40;;;12.13;;
17528;SDS011;8882;53.192;8.184;2023-02-15T06:43:33;30.10;;;14.00;;
17528;SDS011;8882;53.192;8.184;2023-02-15T06:45:59;27.90;;;13.77;;
17528;SDS011;8882;53.192;8.184;2023-02-15T06:48:25;26.60;;;12.87;;
17528;SDS011;8882;53.192;8.184;2023-02-15T06:50:51;26.80;;;12.70;;
17528;SDS011;8882;53.192;8.184;2023-02-15T06:53:17;24.60;;;11.77;;
17528;SDS011;8882;53.192;8.184;2023-02-15T06:55:43;23.07;;;12.17;;
17528;SDS011;8882;53.192;8.184;2023-02-15T06:58:08;24.47;;;11.43;;
17528;SDS011;8882;53.192;8.184;2023-02-15T07:00:34;19.43;;;10.67;;
17528;SDS011;8882;53.192;8.184;2023-02-15T07:02:59;23.13;;;11.17;;
17528;SDS011;8882;53.192;8.184;2023-02-15T07:05:27;23.13;;;10.10;;
17528;SDS011;8882;53.192;8.184;2023-02-15T07:07:56;19.83;;;10.50;;
17528;SDS011;8882;53.192;8.184;2023-02-15T07:10:22;16.93;;;9.63;;
17528;SDS011;8882;53.192;8.184;2023-02-15T07:12:48;19.63;;;10.53;;
17528;SDS011;8882;53.192;8.184;2023-02-15T07:15:14;22.97;;;10.90;;
17528;SDS011;8882;53.192;8.184;2023-02-15T07:17:42;21.90;;;11.87;;
17528;SDS011;8882;53.192;8.184;2023-02-15T07:20:12;21.53;;;11.83;;
17528;SDS011;8882;53.192;8.184;2023-02-15T07:22:39;22.97;;;11.50;;
17528;SDS011;8882;53.192;8.184;2023-02-15T07:25:06;22.77;;;11.67;;
17528;SDS011;8882;53.192;8.184;2023-02-15T07:27:33;22.20;;;10.17;;
17528;SDS011;8882;53.192;8.184;2023-02-15T07:29:59;19.67;;;10.47;;
17528;SDS011;8882;53.192;8.184;2023-02-15T07:32:27;22.27;;;11.43;;
17528;SDS011;8882;53.192;8.184;2023-02-15T07:34:54;24.23;;;12.07;;
17528;SDS011;8882;53.192;8.184;2023-02-15T07:37:19;24.67;;;12.63;;
17528;SDS011;8882;53.192;8.184;2023-02-15T07:39:45;31.60;;;15.00;;
17528;SDS011;8882;53.192;8.184;2023-02-15T07:42:11;23.33;;;13.40;;
17528;SDS011;8882;53.192;8.184;2023-02-15T07:44:36;24.03;;;13.60;;
17528;SDS011;8882;53.192;8.184;2023-02-15T07:47:02;21.67;;;12.43;;
17528;SDS011;8882;53.192;8.184;2023-02-15T07:49:27;22.73;;;10.93;;
17528;SDS011;8882;53.192;8.184;2023-02-15T07:51:53;27.30;;;11.90;;
17528;SDS011;8882;53.192;8.184;2023-02-15T07:54:18;26.77;;;12.03;;
17528;SDS011;8882;53.192;8.184;2023-02-15T07:56:44;23.13;;;11.80;;
17528;SDS011;8882;53.192;8.184;2023-02-15T07:59:09;22.03;;;12.87;;
17528;SDS011;8882;53.192;8.184;2023-02-15T08:01:36;22.20;;;12.37;;
17528;SDS011;8882;53.192;8.184;2023-02-15T08:04:03;21.80;;;11.67;;
17528;SDS011;8882;53.192;8.184;2023-02-15T08:06:31;23.30;;;12.27;;
17528;SDS011;8882;53.192;8.184;2023-02-15T08:08:58;20.40;;;11.90;;
17528;SDS011;8882;53.192;8.184;2023-02-15T08:11:28;24.80;;;13.37;;
17528;SDS011;8882;53.192;8.184;2023-02-15T08:14:14;22.20;;;12.77;;
17528;SDS011;8882;53.192;8.184;2023-02-15T08:21:39;20.10;;;11.90;;
17528;SDS011;8882;53.192;8.184;2023-02-15T08:24:06;24.50;;;12.73;;
17528;SDS011;8882;53.192;8.184;2023-02-15T08:26:33;23.87;;;13.03;;
17528;SDS011;8882;53.192;8.184;2023-02-15T08:29:00;24.53;;;12.87;;
17528;SDS011;8882;53.192;8.184;2023-02-15T08:31:26;21.53;;;12.87;;
17528;SDS011;8882;53.192;8.184;2023-02-15T08:33:53;26.67;;;14.67;;
17528;SDS011;8882;53.192;8.184;2023-02-15T08:36:20;24.43;;;13.80;;
17528;SDS011;8882;53.192;8.184;2023-02-15T08:38:48;27.70;;;15.27;;
17528;SDS011;8882;53.192;8.184;2023-02-15T08:41:15;26.63;;;15.20;;
17528;SDS011;8882;53.192;8.184;2023-02-15T08:43:46;23.77;;;13.90;;
17528;SDS011;8882;53.192;8.184;2023-02-15T08:46:15;32.17;;;14.33;;
17528;SDS011;8882;53.192;8.184;2023-02-15T08:48:41;28.63;;;15.30;;
17528;SDS011;8882;53.192;8.184;2023-02-15T08:51:09;25.57;;;15.67;;
17528;SDS011;8882;53.192;8.184;2023-02-15T08:53:47;29.13;;;15.63;;
17528;SDS011;8882;53.192;8.184;2023-02-15T08:56:14;28.10;;;16.43;;
17528;SDS011;8882;53.192;8.184;2023-02-15T08:58:40;28.37;;;15.47;;
17528;SDS011;8882;53.192;8.184;2023-02-15T09:01:13;25.83;;;14.77;;
17528;SDS011;8882;53.192;8.184;2023-02-15T09:03:43;29.83;;;15.60;;
17528;SDS011;8882;53.192;8.184;2023-02-15T09:06:09;35.57;;;17.57;;
17528;SDS011;8882;53.192;8.184;2023-02-15T09:08:36;33.83;;;18.33;;
17528;SDS011;8882;53.192;8.184;2023-02-15T09:11:09;38.47;;;18.23;;
17528;SDS011;8882;53.192;8.184;2023-02-15T09:13:51;30.50;;;18.30;;
17528;SDS011;8882;53.192;8.184;2023-02-15T09:16:20;38.63;;;20.57;;
17528;SDS011;8882;53.192;8.184;2023-02-15T09:18:46;36.33;;;20.30;;
17528;SDS011;8882;53.192;8.184;2023-02-15T09:21:13;38.93;;;21.80;;
17528;SDS011;8882;53.192;8.184;2023-02-15T09:23:41;34.40;;;19.50;;
17528;SDS011;8882;53.192;8.184;2023-02-15T09:26:11;36.37;;;19.47;;
17528;SDS011;8882;53.192;8.184;2023-02-15T09:28:39;30.73;;;18.27;;
17528;SDS011;8882;53.192;8.184;2023-02-15T09:31:05;39.17;;;19.40;;
17528;SDS011;8882;53.192;8.184;2023-02-15T09:33:36;34.10;;;18.27;;
17528;SDS011;8882;53.192;8.184;2023-02-15T09:36:03;35.53;;;18.77;;
17528;SDS011;8882;53.192;8.184;2023-02-15T09:38:29;33.20;;;18.13;;
17528;SDS011;8882;53.192;8.184;2023-02-15T09:41:03;32.67;;;17.67;;
17528;SDS011;8882;53.192;8.184;2023-02-15T09:46:34;25.47;;;14.97;;
17528;SDS011;8882;53.192;8.184;2023-02-15T09:49:24;23.40;;;13.63;;
17528;SDS011;8882;53.192;8.184;2023-02-15T09:52:18;27.87;;;15.37;;
17528;SDS011;8882;53.192;8.184;2023-02-15T10:00:54;29.30;;;15.57;;
17528;SDS011;8882;53.192;8.184;2023-02-15T10:03:33;26.33;;;14.90;;
17528;SDS011;8882;53.192;8.184;2023-02-15T10:23:43;25.17;;;14.23;;
17528;SDS011;8882;53.192;8.184;2023-02-15T10:26:22;24.80;;;14.97;;
17528;SDS011;8882;53.192;8.184;2023-02-15T10:29:03;22.53;;;13.43;;
17528;SDS011;8882;53.192;8.184;2023-02-15T10:31:39;28.37;;;15.47;;
17528;SDS011;8882;53.192;8.184;2023-02-15T10:34:15;26.43;;;14.00;;
17528;SDS011;8882;53.192;8.184;2023-02-15T10:39:21;24.53;;;13.83;;
17528;SDS011;8882;53.192;8.184;2023-02-15T10:42:01;27.87;;;14.43;;
17528;SDS011;8882;53.192;8.184;2023-02-15T10:45:06;28.33;;;13.67;;
17528;SDS011;8882;53.192;8.184;2023-02-15T10:50:50;28.43;;;13.77;;
17528;SDS011;8882;53.192;8.184;2023-02-15T11:01:40;27.10;;;13.80;;
17528;SDS011;8882;53.192;8.184;2023-02-15T11:07:49;24.20;;;12.87;;
17528;SDS011;8882;53.192;8.184;2023-02-15T11:10:02;27.83;;;14.10;;
17528;SDS011;8882;53.192;8.184;2023-02-15T11:12:49;26.93;;;14.47;;
17528;SDS011;8882;53.192;8.184;2023-02-15T11:18:01;25.80;;;14.60;;
17528;SDS011;8882;53.192;8.184;2023-02-15T11:20:42;26.10;;;13.90;;
17528;SDS011;8882;53.192;8.184;2023-02-15T11:23:15;27.10;;;14.23;;
17528;SDS011;8882;53.192;8.184;2023-02-15T11:25:44;29.13;;;15.13;;
17528;SDS011;8882;53.192;8.184;2023-02-15T11:28:18;28.03;;;15.00;;
17528;SDS011;8882;53.192;8.184;2023-02-15T11:30:51;23.67;;;14.57;;
17528;SDS011;8882;53.192;8.184;2023-02-15T11:33:22;25.93;;;13.50;;
17528;SDS011;8882;53.192;8.184;2023-02-15T11:36:04;29.33;;;16.43;;
17528;SDS011;8882;53.192;8.184;2023-02-15T11:39:11;24.67;;;14.40;;
17528;SDS011;8882;53.192;8.184;2023-02-15T11:41:40;28.27;;;15.67;;
17528;SDS011;8882;53.192;8.184;2023-02-15T11:44:20;28.70;;;15.57;;
17528;SDS011;8882;53.192;8.184;2023-02-15T11:46:50;26.47;;;14.73;;
17528;SDS011;8882;53.192;8.184;2023-02-15T11:52:12;28.47;;;15.97;;
17528;SDS011;8882;53.192;8.184;2023-02-15T11:54:40;29.70;;;15.03;;
17528;SDS011;8882;53.192;8.184;2023-02-15T11:59:41;25.97;;;15.70;;
17528;SDS011;8882;53.192;8.184;2023-02-15T12:02:16;30.10;;;16.27;;
17528;SDS011;8882;53.192;8.184;2023-02-15T12:04:43;30.70;;;16.03;;
17528;SDS011;8882;53.192;8.184;2023-02-15T12:07:44;28.53;;;16.10;;
17528;SDS011;8882;53.192;8.184;2023-02-15T12:10:22;29.30;;;15.00;;
17528;SDS011;8882;53.192;8.184;2023-02-15T12:13:09;26.47;;;15.33;;
17528;SDS011;8882;53.192;8.184;2023-02-15T12:15:40;30.67;;;16.63;;
17528;SDS011;8882;53.192;8.184;2023-02-15T12:18:19;28.27;;;15.83;;
17528;SDS011;8882;53.192;8.184;2023-02-15T12:21:06;28.97;;;16.17;;
17528;SDS011;8882;53.192;8.184;2023-02-15T12:23:35;34.60;;;17.57;;
17528;SDS011;8882;53.192;8.184;2023-02-15T12:26:08;33.83;;;15.87;;
17528;SDS011;8882;53.192;8.184;2023-02-15T12:28:35;31.10;;;16.40;;
17528;SDS011;8882;53.192;8.184;2023-02-15T12:31:07;30.77;;;17.47;;
17528;SDS011;8882;53.192;8.184;2023-02-15T12:33:45;30.93;;;15.90;;
17528;SDS011;8882;53.192;8.184;2023-02-15T12:36:24;31.47;;;16.27;;
17528;SDS011;8882;53.192;8.184;2023-02-15T12:41:37;28.33;;;16.33;;
17528;SDS011;8882;53.192;8.184;2023-02-15T12:44:17;29.13;;;16.43;;
17528;SDS011;8882;53.192;8.184;2023-02-15T12:47:01;30.07;;;17.43;;
17528;SDS011;8882;53.192;8.184;2023-02-15T12:49:34;32.10;;;18.00;;
17528;SDS011;8882;53.192;8.184;2023-02-15T12:52:05;30.23;;;17.30;;
17528;SDS011;8882;53.192;8.184;2023-02-15T12:54:47;29.37;;;17.13;;
17528;SDS011;8882;53.192;8.184;2023-02-15T12:57:26;33.17;;;16.13;;
17528;SDS011;8882;53.192;8.184;2023-02-15T13:00:04;32.47;;;16.53;;
17528;SDS011;8882;53.192;8.184;2023-02-15T13:02:52;29.67;;;16.57;;
17528;SDS011;8882;53.192;8.184;2023-02-15T13:05:22;29.13;;;16.37;;
17528;SDS011;8882;53.192;8.184;2023-02-15T13:08:03;34.07;;;16.33;;
17528;SDS011;8882;53.192;8.184;2023-02-15T13:10:40;29.67;;;15.27;;
17528;SDS011;8882;53.192;8.184;2023-02-15T13:13:27;30.07;;;15.47;;
17528;SDS011;8882;53.192;8.184;2023-02-15T13:15:58;31.27;;;15.80;;
17528;SDS011;8882;53.192;8.184;2023-02-15T13:18:34;28.30;;;16.13;;
17528;SDS011;8882;53.192;8.184;2023-02-15T13:21:14;28.20;;;15.37;;
17528;SDS011;8882;53.192;8.184;2023-02-15T13:23:54;28.63;;;16.90;;
17528;SDS011;8882;53.192;8.184;2023-02-15T13:26:32;29.13;;;14.70;;
17528;SDS011;8882;53.192;8.184;2023-02-15T13:29:07;28.20;;;14.87;;
17528;SDS011;8882;53.192;8.184;2023-02-15T13:31:37;29.60;;;15.17;;
17528;SDS011;8882;53.192;8.184;2023-02-15T13:34:09;30.37;;;14.87;;
17528;SDS011;8882;53.192;8.184;2023-02-15T13:36:47;29.63;;;14.60;;
17528;SDS011;8882;53.192;8.184;2023-02-15T13:39:24;28.63;;;14.93;;
17528;SDS011;8882;53.192;8.184;2023-02-15T13:44:59;29.57;;;15.83;;
17528;SDS011;8882;53.192;8.184;2023-02-15T13:47:37;28.47;;;15.37;;
17528;SDS011;8882;53.192;8.184;2023-02-15T13:50:48;29.60;;;15.43;;
17528;SDS011;8882;53.192;8.184;2023-02-15T13:53:48;28.17;;;14.90;;
17528;SDS011;8882;53.192;8.184;2023-02-15T13:59:17;26.37;;;15.07;;
17528;SDS011;8882;53.192;8.184;2023-02-15T14:18:04;28.37;;;14.63;;
17528;SDS011;8882;53.192;8.184;2023-02-15T14:26:09;29.17;;;15.63;;
17528;SDS011;8882;53.192;8.184;2023-02-15T14:28:45;27.67;;;13.47;;
17528;SDS011;8882;53.192;8.184;2023-02-15T14:31:18;26.93;;;14.90;;
17528;SDS011;8882;53.192;8.184;2023-02-15T14:33:55;26.87;;;14.00;;
17528;SDS011;8882;53.192;8.184;2023-02-15T14:36:21;28.83;;;14.67;;
17528;SDS011;8882;53.192;8.184;2023-02-15T14:39:08;26.67;;;14.37;;
17528;SDS011;8882;53.192;8.184;2023-02-15T14:44:59;25.30;;;14.10;;
17528;SDS011;8882;53.192;8.184;2023-02-15T14:47:39;25.10;;;13.57;;
17528;SDS011;8882;53.192;8.184;2023-02-15T14:50:32;24.30;;;14.07;;
17528;SDS011;8882;53.192;8.184;2023-02-15T14:56:19;27.00;;;14.63;;
17528;SDS011;8882;53.192;8.184;2023-02-15T15:01:24;27.80;;;14.33;;
17528;SDS011;8882;53.192;8.184;2023-02-15T15:03:55;28.60;;;14.47;;
17528;SDS011;8882;53.192;8.184;2023-02-15T15:06:28;27.83;;;14.17;;
17528;SDS011;8882;53.192;8.184;2023-02-15T15:08:58;25.80;;;14.40;;
17528;SDS011;8882;53.192;8.184;2023-02-15T15:11:53;28.60;;;15.63;;
17528;SDS011;8882;53.192;8.184;2023-02-15T15:16:57;27.83;;;14.17;;
17528;SDS011;8882;53.192;8.184;2023-02-15T15:22:18;38.53;;;16.17;;
17528;SDS011;8882;53.192;8.184;2023-02-15T15:32:47;27.70;;;13.67;;
17528;SDS011;8882;53.192;8.184;2023-02-15T15:35:33;25.87;;;13.70;;
17528;SDS011;8882;53.192;8.184;2023-02-15T15:46:37;24.00;;;14.07;;
17528;SDS011;8882;53.192;8.184;2023-02-15T15:49:23;25.83;;;13.53;;
17528;SDS011;8882;53.192;8.184;2023-02-15T15:51:53;27.57;;;14.67;;
17528;SDS011;8882;53.192;8.184;2023-02-15T15:54:22;26.30;;;13.67;;
17528;SDS011;8882;53.192;8.184;2023-02-15T15:56:55;28.40;;;13.93;;
17528;SDS011;8882;53.192;8.184;2023-02-15T15:59:24;28.57;;;14.83;;
17528;SDS011;8882;53.192;8.184;2023-02-15T16:01:51;30.97;;;14.43;;
17528;SDS011;8882;53.192;8.184;2023-02-15T16:04:28;26.50;;;14.87;;
17528;SDS011;8882;53.192;8.184;2023-02-15T16:06:56;28.80;;;13.60;;
17528;SDS011;8882;53.192;8.184;2023-02-15T16:09:23;26.20;;;14.03;;
17528;SDS011;8882;53.192;8.184;2023-02-15T16:11:51;28.10;;;14.00;;
17528;SDS011;8882;53.192;8.184;2023-02-15T16:17:07;30.60;;;14.13;;
17528;SDS011;8882;53.192;8.184;2023-02-15T16:19:42;28.57;;;14.90;;
17528;SDS011;8882;53.192;8.184;2023-02-15T16:22:10;27.83;;;14.00;;
17528;SDS011;8882;53.192;8.184;2023-02-15T16:29:54;32.80;;;15.80;;
17528;SDS011;8882;53.192;8.184;2023-02-15T16:32:21;26.57;;;14.20;;
17528;SDS011;8882;53.192;8.184;2023-02-15T16:34:56;27.33;;;13.83;;
17528;SDS011;8882;53.192;8.184;2023-02-15T16:37:27;36.13;;;18.20;;
17528;SDS011;8882;53.192;8.184;2023-02-15T16:39:58;28.83;;;15.90;;
17528;SDS011;8882;53.192;8.184;2023-02-15T16:42:24;23.53;;;11.90;;
17528;SDS011;8882;53.192;8.184;2023-02-15T16:44:58;27.40;;;14.00;;
17528;SDS011;8882;53.192;8.184;2023-02-15T16:47:33;28.50;;;13.87;;
17528;SDS011;8882;53.192;8.184;2023-02-15T16:50:05;27.83;;;15.33;;
17528;SDS011;8882;53.192;8.184;2023-02-15T16:52:31;25.45;;;12.82;;
17528;SDS011;8882;53.192;8.184;2023-02-15T16:54:58;30.77;;;14.57;;
17528;SDS011;8882;53.192;8.184;2023-02-15T16:57:31;28.23;;;14.17;;
17528;SDS011;8882;53.192;8.184;2023-02-15T17:00:01;29.07;;;15.23;;
17528;SDS011;8882;53.192;8.184;2023-02-15T17:02:30;29.00;;;14.10;;
17528;SDS011;8882;53.192;8.184;2023-02-15T17:07:38;26.17;;;13.97;;
17528;SDS011;8882;53.192;8.184;2023-02-15T17:10:30;29.53;;;15.33;;
17528;SDS011;8882;53.192;8.184;2023-02-15T17:13:09;28.10;;;15.60;;
17528;SDS011;8882;53.192;8.184;2023-02-15T17:15:40;31.33;;;15.30;;
17528;SDS011;8882;53.192;8.184;2023-02-15T17:18:16;34.83;;;16.83;;
17528;SDS011;8882;53.192;8.184;2023-02-15T17:20:45;31.40;;;15.23;;
17528;SDS011;8882;53.192;8.184;2023-02-15T17:23:27;31.80;;;15.83;;
17528;SDS011;8882;53.192;8.184;2023-02-15T17:25:54;38.07;;;16.87;;
17528;SDS011;8882;53.192;8.184;2023-02-15T17:28:20;35.33;;;17.50;;
17528;SDS011;8882;53.192;8.184;2023-02-15T17:30:49;36.10;;;16.80;;
17528;SDS011;8882;53.192;8.184;2023-02-15T17:33:22;36.17;;;15.83;;
17528;SDS011;8882;53.192;8.184;2023-02-15T17:36:03;26.93;;;15.63;;
17528;SDS011;8882;53.192;8.184;2023-02-15T17:38:58;25.33;;;14.77;;
17528;SDS011;8882;53.192;8.184;2023-02-15T17:41:27;31.67;;;14.23;;
17528;SDS011;8882;53.192;8.184;2023-02-15T17:43:54;30.23;;;15.70;;
17528;SDS011;8882;53.192;8.184;2023-02-15T17:46:20;30.90;;;15.87;;
17528;SDS011;8882;53.192;8.184;2023-02-15T17:48:50;33.87;;;15.93;;
17528;SDS011;8882;53.192;8.184;2023-02-15T17:51:17;27.20;;;14.73;;
17528;SDS011;8882;53.192;8.184;2023-02-15T17:53:44;27.73;;;14.73;;
17528;SDS011;8882;53.192;8.184;2023-02-15T17:56:29;29.00;;;13.77;;
17528;SDS011;8882;53.192;8.184;2023-02-15T17:58:54;28.07;;;14.00;;
17528;SDS011;8882;53.192;8.184;2023-02-15T18:01:20;24.33;;;14.37;;
17528;SDS011;8882;53.192;8.184;2023-02-15T18:04:07;30.77;;;15.53;;
17528;SDS011;8882;53.192;8.184;2023-02-15T18:06:53;30.27;;;15.63;;
17528;SDS011;8882;53.192;8.184;2023-02-15T18:09:37;28.97;;;14.77;;
17528;SDS011;8882;53.192;8.184;2023-02-15T18:12:22;25.43;;;14.20;;
17528;SDS011;8882;53.192;8.184;2023-02-15T18:14:50;28.13;;;14.30;;
17528;SDS011;8882;53.192;8.184;2023-02-15T18:17:18;28.37;;;14.30;;
17528;SDS011;8882;53.192;8.184;2023-02-15T18:19:44;27.20;;;13.97;;
17528;SDS011;8882;53.192;8.184;2023-02-15T18:22:11;26.03;;;14.03;;
17528;SDS011;8882;53.192;8.184;2023-02-15T18:24:38;25.07;;;14.30;;
17528;SDS011;8882;53.192;8.184;2023-02-15T18:27:04;27.13;;;14.23;;
17528;SDS011;8882;53.192;8.184;2023-02-15T18:29:30;24.93;;;13.43;;
17528;SDS011;8882;53.192;8.184;2023-02-15T18:31:56;29.53;;;14.07;;
17528;SDS011;8882;53.192;8.184;2023-02-15T18:34:25;31.53;;;15.20;;
17528;SDS011;8882;53.192;8.184;2023-02-15T18:37:02;27.53;;;14.63;;
17528;SDS011;8882;53.192;8.184;2023-02-15T18:39:36;29.90;;;14.33;;
17528;SDS011;8882;53.192;8.184;2023-02-15T18:42:04;24.57;;;14.43;;
17528;SDS011;8882;53.192;8.184;2023-02-15T18:44:30;29.83;;;16.53;;
17528;SDS011;8882;53.192;8.184;2023-02-15T18:46:55;32.37;;;14.67;;
17528;SDS011;8882;53.192;8.184;2023-02-15T18:49:21;27.93;;;15.53;;
17528;SDS011;8882;53.192;8.184;2023-02-15T18:51:46;27.60;;;15.00;;
17528;SDS011;8882;53.192;8.184;2023-02-15T18:54:14;25.50;;;15.17;;
17528;SDS011;8882;53.192;8.184;2023-02-15T18:56:47;28.13;;;16.10;;
17528;SDS011;8882;53.192;8.184;2023-02-15T18:59:17;27.77;;;16.43;;
17528;SDS011;8882;53.192;8.184;2023-02-15T19:01:43;38.00;;;20.17;;
17528;SDS011;8882;53.192;8.184;2023-02-15T19:04:08;49.43;;;23.07;;
17528;SDS011;8882;53.192;8.184;2023-02-15T19:06:34;41.40;;;21.93;;
17528;SDS011;8882;53.192;8.184;2023-02-15T19:09:01;35.53;;;18.17;;
17528;SDS011;8882;53.192;8.184;2023-02-15T19:11:27;33.03;;;17.70;;
17528;SDS011;8882;53.192;8.184;2023-02-15T19:13:52;33.53;;;18.13;;
17528;SDS011;8882;53.192;8.184;2023-02-15T19:16:32;32.27;;;18.23;;
17528;SDS011;8882;53.192;8.184;2023-02-15T19:18:59;29.63;;;16.67;;
17528;SDS011;8882;53.192;8.184;2023-02-15T19:21:26;28.53;;;16.23;;
17528;SDS011;8882;53.192;8.184;2023-02-15T19:23:55;30.53;;;15.87;;
17528;SDS011;8882;53.192;8.184;2023-02-15T19:26:26;31.80;;;17.43;;
17528;SDS011;8882;53.192;8.184;2023-02-15T19:28:55;34.30;;;16.50;;
17528;SDS011;8882;53.192;8.184;2023-02-15T19:31:24;36.47;;;18.40;;
17528;SDS011;8882;53.192;8.184;2023-02-15T19:33:50;34.27;;;16.30;;
17528;SDS011;8882;53.192;8.184;2023-02-15T19:36:16;31.93;;;16.33;;
17528;SDS011;8882;53.192;8.184;2023-02-15T19:38:44;30.83;;;15.60;;
17528;SDS011;8882;53.192;8.184;2023-02-15T19:41:15;37.83;;;16.30;;
17528;SDS011;8882;53.192;8.184;2023-02-15T19:43:52;37.00;;;18.23;;
17528;SDS011;8882;53.192;8.184;2023-02-15T19:46:20;36.17;;;18.73;;
17528;SDS011;8882;53.192;8.184;2023-02-15T19:48:47;41.07;;;20.27;;
17528;SDS011;8882;53.192;8.184;2023-02-15T19:51:14;46.83;;;22.07;;
17528;SDS011;8882;53.192;8.184;2023-02-15T19:53:39;42.13;;;20.63;;
17528;SDS011;8882;53.192;8.184;2023-02-15T19:56:11;42.87;;;19.33;;
17528;SDS011;8882;53.192;8.184;2023-02-15T19:58:42;33.17;;;17.30;;
17528;SDS011;8882;53.192;8.184;2023-02-15T20:01:07;36.17;;;17.10;;
17528;SDS011;8882;53.192;8.184;2023-02-15T20:03:33;37.63;;;17.43;;
17528;SDS011;8882;53.192;8.184;2023-02-15T20:05:59;32.60;;;16.73;;
17528;SDS011;8882;53.192;8.184;2023-02-15T20:08:25;35.70;;;17.37;;
17528;SDS011;8882;53.192;8.184;2023-02-15T20:10:50;34.80;;;17.17;;
17528;SDS011;8882;53.192;8.184;2023-02-15T20:13:17;30.77;;;17.40;;
17528;SDS011;8882;53.192;8.184;2023-02-15T20:15:44;35.07;;;17.93;;
17528;SDS011;8882;53.192;8.184;2023-02-15T20:18:10;38.33;;;20.23;;
17528;SDS011;8882;53.192;8.184;2023-02-15T20:20:43;42.60;;;18.87;;
17528;SDS011;8882;53.192;8.184;2023-02-15T20:23:25;42.40;;;18.30;;
17528;SDS011;8882;53.192;8.184;2023-02-15T20:25:53;37.03;;;18.43;;
17528;SDS011;8882;53.192;8.184;2023-02-15T20:28:25;36.33;;;18.37;;
17528;SDS011;8882;53.192;8.184;2023-02-15T20:30:53;35.87;;;17.27;;
17528;SDS011;8882;53.192;8.184;2023-02-15T20:33:19;37.47;;;16.90;;
17528;SDS011;8882;53.192;8.184;2023-02-15T20:35:45;39.07;;;17.90;;
17528;SDS011;8882;53.192;8.184;2023-02-15T20:38:14;34.03;;;17.23;;
17528;SDS011;8882;53.192;8.184;2023-02-15T20:40:45;35.40;;;17.07;;
17528;SDS011;8882;53.192;8.184;2023-02-15T20:43:31;38.47;;;17.07;;
17528;SDS011;8882;53.192;8.184;2023-02-15T20:45:57;35.63;;;17.87;;
17528;SDS011;8882;53.192;8.184;2023-02-15T20:48:22;35.17;;;17.40;;
17528;SDS011;8882;53.192;8.184;2023-02-15T20:50:48;32.37;;;17.43;;
17528;SDS011;8882;53.192;8.184;2023-02-15T20:53:14;34.80;;;16.80;;
17528;SDS011;8882;53.192;8.184;2023-02-15T20:55:39;33.27;;;15.70;;
17528;SDS011;8882;53.192;8.184;2023-02-15T20:58:09;31.53;;;16.90;;
17528;SDS011;8882;53.192;8.184;2023-02-15T21:00:42;37.07;;;17.97;;
17528;SDS011;8882;53.192;8.184;2023-02-15T21:03:09;37.80;;;18.47;;
17528;SDS011;8882;53.192;8.184;2023-02-15T21:05:37;30.43;;;16.20;;
17528;SDS011;8882;53.192;8.184;2023-02-15T21:08:12;34.57;;;17.23;;
17528;SDS011;8882;53.192;8.184;2023-02-15T21:10:40;32.83;;;17.33;;
17528;SDS011;8882;53.192;8.184;2023-02-15T21:13:14;34.93;;;16.80;;
17528;SDS011;8882;53.192;8.184;2023-02-15T21:15:56;40.47;;;17.40;;
17528;SDS011;8882;53.192;8.184;2023-02-15T21:18:23;32.63;;;17.63;;
17528;SDS011;8882;53.192;8.184;2023-02-15T21:20:50;37.30;;;18.13;;
17528;SDS011;8882;53.192;8.184;2023-02-15T21:23:22;40.67;;;18.10;;
17528;SDS011;8882;53.192;8.184;2023-02-15T21:25:50;38.80;;;18.23;;
17528;SDS011;8882;53.192;8.184;2023-02-15T21:28:18;40.07;;;19.57;;
17528;SDS011;8882;53.192;8.184;2023-02-15T21:30:47;32.50;;;18.50;;
17528;SDS011;8882;53.192;8.184;2023-02-15T21:33:13;31.33;;;17.40;;
17528;SDS011;8882;53.192;8.184;2023-02-15T21:35:40;38.47;;;19.20;;
17528;SDS011;8882;53.192;8.184;2023-02-15T21:38:09;32.27;;;16.53;;
17528;SDS011;8882;53.192;8.184;2023-02-15T21:40:39;33.50;;;16.20;;
17528;SDS011;8882;53.192;8.184;2023-02-15T21:43:11;36.70;;;18.77;;
17528;SDS011;8882;53.192;8.184;2023-02-15T21:45:58;33.77;;;18.30;;
17528;SDS011;8882;53.192;8.184;2023-02-15T21:48:44;37.33;;;17.03;;
17528;SDS011;8882;53.192;8.184;2023-02-15T21:51:10;35.27;;;17.73;;
17528;SDS011;8882;53.192;8.184;2023-02-15T21:53:54;34.40;;;17.80;;
17528;SDS011;8882;53.192;8.184;2023-02-15T21:56:20;36.47;;;16.17;;
17528;SDS011;8882;53.192;8.184;2023-02-15T21:58:47;36.47;;;16.30;;
